Time;durP1;ratioP1;P1;durP2;ratioP2;P2;SDS_P1;SDS_P2;PMS_P1;PMS_P2;Temp;Humidity;BMP_temperature;BMP_pressure;BME280_temperature;BME280_humidity;BME280_pressure;Samples;Min_cycle;Max_cycle;Signal;HPM_P1;HPM_P2
2023/07/08 00:01:56;;;;;;;2.05;1.55;;;;;;;;;;12989727;19;20279;-65
2023/07/08 00:06:27;;;;;;;2.67;1.90;;;;;;;;;;12988280;19;20038;-63
2023/07/08 00:10:46;;;;;;;3.78;1.80;;;;;;;;;;12987590;19;20381;-62
2023/07/08 00:15:05;;;;;;;4.78;1.27;;;;;;;;;;12988453;19;20022;-62
2023/07/08 00:19:23;;;;;;;2.65;1.70;;;;;;;;;;12989932;19;20010;-62
2023/07/08 00:23:49;;;;;;;3.97;1.58;;;;;;;;;;12988565;19;20034;-62
2023/07/08 00:28:14;;;;;;;2.83;1.77;;;;;;;;;;12988254;19;20434;-62
2023/07/08 00:32:32;;;;;;;2.72;2.03;;;;;;;;;;12985536;19;20504;-65
2023/07/08 00:36:50;;;;;;;4.10;1.88;;;;;;;;;;12987814;19;20034;-62
2023/07/08 00:41:27;;;;;;;2.10;1.27;;;;;;;;;;12985414;19;20038;-62
2023/07/08 00:45:51;;;;;;;2.50;1.80;;;;;;;;;;12984817;19;20023;-62
2023/07/08 00:50:19;;;;;;;3.03;1.70;;;;;;;;;;12984820;19;20037;-62
2023/07/08 00:54:37;;;;;;;2.17;1.73;;;;;;;;;;12987425;19;20007;-62
2023/07/08 00:59:07;;;;;;;2.53;1.65;;;;;;;;;;12987199;19;20017;-63
2023/07/08 01:03:27;;;;;;;2.85;1.38;;;;;;;;;;12988217;19;20021;-63
2023/07/08 01:07:51;;;;;;;3.85;1.50;;;;;;;;;;12984221;19;20010;-62
2023/07/08 01:12:17;;;;;;;2.80;1.88;;;;;;;;;;12982513;19;20034;-63
2023/07/08 01:16:35;;;;;;;2.20;1.55;;;;;;;;;;12983992;19;20015;-63
2023/07/08 01:20:55;;;;;;;2.53;1.80;;;;;;;;;;12984987;19;20014;-62
2023/07/08 01:25:13;;;;;;;3.00;1.55;;;;;;;;;;12983996;19;20473;-62
2023/07/08 01:29:31;;;;;;;3.03;1.80;;;;;;;;;;12983019;19;20731;-62
2023/07/08 01:33:52;;;;;;;2.13;1.65;;;;;;;;;;12985346;19;20010;-62
2023/07/08 01:38:13;;;;;;;4.65;1.88;;;;;;;;;;12981712;19;21146;-63
2023/07/08 01:42:31;;;;;;;1.77;1.50;;;;;;;;;;12982928;19;20390;-63
2023/07/08 01:46:52;;;;;;;;;;;;;;;;;;12982872;19;20477;-63
2023/07/08 01:51:10;;;;;;;2.17;1.48;;;;;;;;;;12982658;19;19953;-63
2023/07/08 01:55:31;;;;;;;;;;;;;;;;;;12981096;19;20491;-62
2023/07/08 01:59:50;;;;;;;1.98;1.48;;;;;;;;;;12983475;19;19918;-64
2023/07/08 02:04:07;;;;;;;2.08;1.50;;;;;;;;;;12982386;19;20010;-63
2023/07/08 02:08:26;;;;;;;9.43;1.60;;;;;;;;;;12982167;19;20118;-63
2023/07/08 02:12:44;;;;;;;2.47;1.58;;;;;;;;;;12981872;19;20006;-63
2023/07/08 02:17:05;;;;;;;;;;;;;;;;;;12983990;19;20015;-63
2023/07/08 02:21:23;;;;;;;1.73;1.30;;;;;;;;;;12982012;19;19929;-63
2023/07/08 02:25:41;;;;;;;;;;;;;;;;;;12982941;19;20026;-63
2023/07/08 02:29:58;;;;;;;;;;;;;;;;;;12981848;19;19938;-63
2023/07/08 02:34:16;;;;;;;3.28;1.30;;;;;;;;;;12980812;19;19926;-61
2023/07/08 02:38:34;;;;;;;1.65;1.25;;;;;;;;;;12981792;19;20465;-62
2023/07/08 02:42:51;;;;;;;1.98;1.40;;;;;;;;;;12979574;19;20011;-63
2023/07/08 02:47:09;;;;;;;;;;;;;;;;;;12980605;19;20034;-63
2023/07/08 02:51:27;;;;;;;2.75;1.35;;;;;;;;;;12980359;19;19914;-62
2023/07/08 02:55:44;;;;;;;2.17;1.27;;;;;;;;;;12980581;19;20017;-63
2023/07/08 03:00:06;;;;;;;3.10;1.33;;;;;;;;;;12979949;19;20018;-63
2023/07/08 03:04:26;;;;;;;1.52;1.20;;;;;;;;;;12984764;19;20034;-63
2023/07/08 03:08:43;;;;;;;6.85;1.48;;;;;;;;;;12992394;19;20359;-63
2023/07/08 03:13:01;;;;;;;;;;;;;;;;;;12992201;19;20022;-64
2023/07/08 03:17:19;;;;;;;1.80;1.20;;;;;;;;;;12992378;19;19923;-63
2023/07/08 03:21:37;;;;;;;2.03;1.35;;;;;;;;;;12991518;19;20473;-62
2023/07/08 03:25:55;;;;;;;3.22;1.75;;;;;;;;;;12991779;19;20022;-63
2023/07/08 03:30:12;;;;;;;;;;;;;;;;;;12990993;19;20019;-63
2023/07/08 03:34:30;;;;;;;;;;;;;;;;;;12992705;19;20877;-63
2023/07/08 03:38:55;;;;;;;3.22;1.30;;;;;;;;;;12992005;19;19925;-63
2023/07/08 03:43:13;;;;;;;2.78;1.73;;;;;;;;;;12987886;19;20711;-62
2023/07/08 03:47:31;;;;;;;2.83;1.42;;;;;;;;;;12990102;19;20014;-63
2023/07/08 03:51:51;;;;;;;2.03;1.45;;;;;;;;;;12987852;19;20378;-63
2023/07/08 03:56:13;;;;;;;1.75;1.30;;;;;;;;;;12989349;19;20022;-63
2023/07/08 04:00:30;;;;;;;2.42;1.48;;;;;;;;;;12987353;19;20540;-63
2023/07/08 04:04:50;;;;;;;2.13;1.60;;;;;;;;;;12989545;19;20539;-62
2023/07/08 04:09:08;;;;;;;4.18;1.23;;;;;;;;;;12988674;19;20580;-63
2023/07/08 04:13:26;;;;;;;;;;;;;;;;;;12989627;19;20014;-62
2023/07/08 04:17:48;;;;;;;3.00;1.63;;;;;;;;;;12986759;19;20679;-63
2023/07/08 04:22:06;;;;;;;2.58;1.63;;;;;;;;;;12986555;19;20011;-63
2023/07/08 04:26:23;;;;;;;2.40;1.60;;;;;;;;;;12989008;19;20017;-63
2023/07/08 04:30:42;;;;;;;2.45;1.58;;;;;;;;;;12988627;19;20126;-63
2023/07/08 04:35:00;;;;;;;2.97;1.80;;;;;;;;;;12988423;19;20049;-63
2023/07/08 04:39:19;;;;;;;2.80;1.50;;;;;;;;;;12985913;19;20014;-63
2023/07/08 04:43:38;;;;;;;11.18;2.40;;;;;;;;;;12987380;19;20010;-65
2023/07/08 04:47:56;;;;;;;3.80;2.42;;;;;;;;;;12986549;19;20319;-63
2023/07/08 04:52:14;;;;;;;3.67;1.85;;;;;;;;;;12986499;19;20022;-63
2023/07/08 04:56:58;;;;;;;;;;;;;;;;;;12987438;19;20006;-62
2023/07/08 05:01:16;;;;;;;2.75;1.95;;;;;;;;;;12986131;19;19919;-65
2023/07/08 05:05:34;;;;;;;;;;;;;;;;;;12986803;19;20476;-63
2023/07/08 05:09:51;;;;;;;3.10;2.20;;;;;;;;;;12986760;19;19911;-63
2023/07/08 05:14:12;;;;;;;2.85;1.90;;;;;;;;;;12984521;19;20087;-64
2023/07/08 05:18:30;;;;;;;2.67;1.60;;;;;;;;;;12985498;19;20461;-63
2023/07/08 05:22:48;;;;;;;2.67;1.88;;;;;;;;;;12984918;19;20351;-63
2023/07/08 05:27:06;;;;;;;3.35;1.88;;;;;;;;;;12983743;19;20017;-65
2023/07/08 05:31:24;;;;;;;8.75;2.05;;;;;;;;;;12984208;19;20342;-63
2023/07/08 05:35:58;;;;;;;5.28;1.95;;;;;;;;;;12985034;19;20392;-63
2023/07/08 05:40:16;;;;;;;3.33;2.05;;;;;;;;;;12984070;19;20479;-63
2023/07/08 05:44:34;;;;;;;;;;;;;;;;;;12984306;19;20442;-63
2023/07/08 05:48:51;;;;;;;3.30;1.70;;;;;;;;;;12980761;19;20200;-63
2023/07/08 05:53:13;;;;;;;4.75;1.80;;;;;;;;;;12983057;19;20034;-63
2023/07/08 05:57:31;;;;;;;4.07;1.90;;;;;;;;;;12984106;19;20459;-63
2023/07/08 06:01:49;;;;;;;;;;;;;;;;;;12985080;19;20010;-64
2023/07/08 06:06:07;;;;;;;6.00;1.67;;;;;;;;;;12983197;19;19926;-63
2023/07/08 06:10:25;;;;;;;3.08;1.42;;;;;;;;;;12982284;19;20306;-64
2023/07/08 06:14:43;;;;;;;3.80;1.90;;;;;;;;;;12980366;19;20469;-63
2023/07/08 06:19:00;;;;;;;3.75;1.55;;;;;;;;;;12981939;19;20015;-63
2023/07/08 06:23:18;;;;;;;2.47;1.55;;;;;;;;;;12981336;19;20122;-62
2023/07/08 06:27:36;;;;;;;;;;;;;;;;;;12968127;19;20465;-63
2023/07/08 06:31:54;;;;;;;3.05;1.77;;;;;;;;;;12981358;19;19915;-62
2023/07/08 06:36:12;;;;;;;3.40;1.70;;;;;;;;;;12981978;19;20018;-64
2023/07/08 06:40:30;;;;;;;;;;;;;;;;;;12981482;19;20026;-63
2023/07/08 06:44:50;;;;;;;2.38;1.45;;;;;;;;;;12981657;19;19926;-63
2023/07/08 06:49:11;;;;;;;3.15;1.77;;;;;;;;;;12979303;19;20331;-62
2023/07/08 06:53:29;;;;;;;3.75;1.73;;;;;;;;;;12980091;19;20021;-63
2023/07/08 06:57:47;;;;;;;18.70;3.10;;;;;;;;;;12970561;19;20042;-63
2023/07/08 07:02:05;;;;;;;;;;;;;;;;;;12975752;19;20366;-64
2023/07/08 07:06:23;;;;;;;47.20;42.28;;;;;;;;;;12961241;19;19946;-65
2023/07/08 07:10:41;;;;;;;;;;;;;;;;;;12889290;19;20014;-64
2023/07/08 07:14:59;;;;;;;5.07;1.80;;;;;;;;;;12802038;19;20314;-65
2023/07/08 07:19:17;;;;;;;1.52;1.33;;;;;;;;;;12919642;19;20080;-65
2023/07/08 07:23:34;;;;;;;17.85;16.00;;;;;;;;;;12971715;19;20807;-64
2023/07/08 07:27:53;;;;;;;2.25;1.60;;;;;;;;;;12974312;19;20014;-66
2023/07/08 07:32:12;;;;;;;2.20;1.00;;;;;;;;;;12975534;19;20042;-66
2023/07/08 07:36:31;;;;;;;44.55;39.78;;;;;;;;;;12973581;19;20011;-66
2023/07/08 07:40:52;;;;;;;13.50;11.10;;;;;;;;;;12975563;19;20019;-64
2023/07/08 07:45:11;;;;;;;3.80;2.47;;;;;;;;;;12919679;19;20011;-65
2023/07/08 07:49:29;;;;;;;4.85;1.60;;;;;;;;;;12971772;19;20564;-64
2023/07/08 07:53:47;;;;;;;;;;;;;;;;;;12985171;19;20847;-64
2023/07/08 07:58:04;;;;;;;1.88;1.05;;;;;;;;;;12985384;19;19914;-64
2023/07/08 08:02:22;;;;;;;2.97;1.40;;;;;;;;;;12986021;19;20045;-65
2023/07/08 08:06:40;;;;;;;;;;;;;;;;;;12985970;19;20029;-65
2023/07/08 08:10:58;;;;;;;1.80;1.10;;;;;;;;;;12983092;19;19944;-65
2023/07/08 08:15:16;;;;;;;2.60;1.42;;;;;;;;;;12984282;19;20011;-66
2023/07/08 08:19:34;;;;;;;3.80;1.50;;;;;;;;;;12984581;19;20015;-64
2023/07/08 08:23:52;;;;;;;;;;;;;;;;;;12984190;19;20042;-66
2023/07/08 08:28:10;;;;;;;;;;;;;;;;;;12982206;19;19915;-65
2023/07/08 08:32:27;;;;;;;1.65;1.17;;;;;;;;;;12981036;19;19938;-65
2023/07/08 08:36:46;;;;;;;2.10;1.08;;;;;;;;;;12981469;19;20014;-64
2023/07/08 08:41:18;;;;;;;1.90;1.33;;;;;;;;;;12951853;19;20410;-65
2023/07/08 08:45:49;;;;;;;105.10;94.93;;;;;;;;;;12973777;19;20025;-64
2023/07/08 08:50:39;;;;;;;4.03;1.35;;;;;;;;;;12974149;19;20006;-65
2023/07/08 08:54:57;;;;;;;3.78;1.30;;;;;;;;;;12980445;19;20010;-65
2023/07/08 08:59:43;;;;;;;3.95;1.33;;;;;;;;;;12978544;19;20035;-65
2023/07/08 09:04:16;;;;;;;3.45;1.45;;;;;;;;;;12978272;19;20010;-63
2023/07/08 09:08:36;;;;;;;5.97;1.45;;;;;;;;;;12977017;19;20371;-65
2023/07/08 09:12:57;;;;;;;2.45;1.42;;;;;;;;;;12975973;19;20014;-65
2023/07/08 09:17:19;;;;;;;5.30;1.27;;;;;;;;;;12975901;19;20496;-64
2023/07/08 09:22:33;;;;;;;2.67;1.17;;;;;;;;;;12980904;19;20049;-64
2023/07/08 09:26:52;;;;;;;1.80;1.20;;;;;;;;;;12975891;19;20018;-64
2023/07/08 09:31:31;;;;;;;2.75;1.42;;;;;;;;;;12978499;19;20014;-64
2023/07/08 09:35:49;;;;;;;2.72;1.30;;;;;;;;;;12982669;19;20025;-66
2023/07/08 09:40:19;;;;;;;55.40;49.45;;;;;;;;;;12972680;19;20763;-65
2023/07/08 09:44:38;;;;;;;18.67;1.55;;;;;;;;;;12966978;19;20010;-64
2023/07/08 09:48:56;;;;;;;2.90;1.70;;;;;;;;;;12974000;19;20045;-61
2023/07/08 09:53:14;;;;;;;7.20;5.53;;;;;;;;;;12962108;19;20162;-62
2023/07/08 09:57:34;;;;;;;3.33;1.52;;;;;;;;;;12957416;19;20607;-61
2023/07/08 10:01:52;;;;;;;3.70;1.40;;;;;;;;;;12961727;19;20038;-61
2023/07/08 10:06:27;;;;;;;;;;;;;;;;;;12978438;19;20018;-62
2023/07/08 10:10:48;;;;;;;4.28;2.13;;;;;;;;;;12977745;19;19930;-62
2023/07/08 10:15:43;;;;;;;2.08;1.30;;;;;;;;;;12972813;19;20015;-61
2023/07/08 10:20:01;;;;;;;1.98;1.60;;;;;;;;;;12947443;19;20010;-62
2023/07/08 10:24:19;;;;;;;3.90;1.98;;;;;;;;;;12958432;19;20022;-62
2023/07/08 10:28:39;;;;;;;4.68;1.80;;;;;;;;;;12948219;19;20015;-62
2023/07/08 10:33:53;;;;;;;3.95;1.48;;;;;;;;;;12973759;19;20014;-61
2023/07/08 10:38:42;;;;;;;2.85;1.27;;;;;;;;;;12975535;19;20017;-61
2023/07/08 10:43:58;;;;;;;2.75;1.67;;;;;;;;;;12964933;19;20021;-60
2023/07/08 10:48:34;;;;;;;2.25;1.30;;;;;;;;;;12972696;19;20014;-60
2023/07/08 10:53:08;;;;;;;2.58;1.65;;;;;;;;;;12981042;19;20011;-59
2023/07/08 10:58:06;;;;;;;2.55;1.55;;;;;;;;;;12978347;19;20034;-62
2023/07/08 11:03:06;;;;;;;2.58;1.45;;;;;;;;;;12980877;19;20014;-61
2023/07/08 11:07:39;;;;;;;3.17;1.80;;;;;;;;;;12979429;19;20109;-60
2023/07/08 11:12:07;;;;;;;4.13;1.30;;;;;;;;;;12979766;19;20473;-61
2023/07/08 11:16:32;;;;;;;2.33;1.13;;;;;;;;;;12975291;19;20106;-60
2023/07/08 11:20:56;;;;;;;3.33;1.30;;;;;;;;;;12979086;19;20015;-60
2023/07/08 11:25:20;;;;;;;3.15;1.70;;;;;;;;;;12982745;19;20066;-60
2023/07/08 11:29:45;;;;;;;3.88;1.75;;;;;;;;;;12990685;19;20018;-60
2023/07/08 11:34:04;;;;;;;2.08;1.00;;;;;;;;;;12988884;19;20018;-61
2023/07/08 11:38:22;;;;;;;1.95;1.15;;;;;;;;;;12989640;19;20161;-61
2023/07/08 11:42:48;;;;;;;2.25;1.27;;;;;;;;;;12991350;19;20018;-61
2023/07/08 11:47:36;;;;;;;5.05;1.73;;;;;;;;;;12990106;19;20500;-61
2023/07/08 11:51:56;;;;;;;3.10;1.15;;;;;;;;;;12989399;19;20014;-60
2023/07/08 11:56:17;;;;;;;4.90;1.40;;;;;;;;;;12988066;19;20832;-60
2023/07/08 12:00:35;;;;;;;4.13;1.33;;;;;;;;;;12990372;19;20019;-60
2023/07/08 12:05:13;;;;;;;3.65;1.25;;;;;;;;;;12988405;19;20014;-61
2023/07/08 12:09:44;;;;;;;3.75;1.20;;;;;;;;;;12990070;19;20014;-61
2023/07/08 12:14:04;;;;;;;2.28;1.13;;;;;;;;;;12987917;19;20445;-61
2023/07/08 12:18:28;;;;;;;1.77;1.13;;;;;;;;;;12987622;19;20014;-61
2023/07/08 12:22:47;;;;;;;1.77;0.95;;;;;;;;;;12987032;19;20022;-61
2023/07/08 12:27:05;;;;;;;2.70;0.90;;;;;;;;;;12987696;19;20029;-61
2023/07/08 12:31:24;;;;;;;2.20;1.00;;;;;;;;;;12988590;19;20003;-61
2023/07/08 12:35:43;;;;;;;1.63;0.98;;;;;;;;;;12984763;19;20342;-61
2023/07/08 12:40:05;;;;;;;3.53;1.05;;;;;;;;;;12987465;19;20038;-61
2023/07/08 12:44:26;;;;;;;2.80;1.20;;;;;;;;;;12988118;19;20046;-61
2023/07/08 12:48:44;;;;;;;0.90;0.73;;;;;;;;;;12986589;19;20010;-61
2023/07/08 12:53:09;;;;;;;2.38;1.13;;;;;;;;;;12986926;19;20022;-61
2023/07/08 12:57:27;;;;;;;4.13;1.08;;;;;;;;;;12987549;19;20041;-61
2023/07/08 13:01:46;;;;;;;2.17;1.15;;;;;;;;;;12984805;19;20011;-61
2023/07/08 13:06:10;;;;;;;1.38;0.85;;;;;;;;;;12985711;19;20007;-61
2023/07/08 13:10:29;;;;;;;1.67;1.30;;;;;;;;;;12985138;19;20516;-60
2023/07/08 13:14:48;;;;;;;4.30;1.10;;;;;;;;;;12983688;19;20421;-61
2023/07/08 13:19:08;;;;;;;2.97;1.40;;;;;;;;;;12983128;19;20014;-62
2023/07/08 13:23:27;;;;;;;4.25;1.63;;;;;;;;;;12983007;19;20026;-61
2023/07/08 13:28:15;;;;;;;2.28;1.25;;;;;;;;;;12983329;19;20029;-62
2023/07/08 13:32:37;;;;;;;2.42;1.30;;;;;;;;;;12984690;19;20014;-60
2023/07/08 13:36:55;;;;;;;2.45;0.80;;;;;;;;;;12984990;19;20473;-60
2023/07/08 13:41:21;;;;;;;3.03;1.30;;;;;;;;;;12983767;19;20484;-60
2023/07/08 13:45:47;;;;;;;;;;;;;;;;;;12982487;19;20007;-61
2023/07/08 13:50:25;;;;;;;2.05;1.40;;;;;;;;;;12979979;19;19914;-61
2023/07/08 13:54:52;;;;;;;3.72;1.40;;;;;;;;;;12982011;19;20592;-60
2023/07/08 13:59:21;;;;;;;4.72;1.80;;;;;;;;;;12982387;19;20018;-60
2023/07/08 14:03:39;;;;;;;1.60;1.00;;;;;;;;;;12982267;19;20006;-60
2023/07/08 14:07:58;;;;;;;2.03;1.15;;;;;;;;;;12983050;19;20025;-60
2023/07/08 14:12:16;;;;;;;2.25;1.33;;;;;;;;;;12982542;19;20028;-60
2023/07/08 14:16:39;;;;;;;4.82;1.35;;;;;;;;;;12959774;19;20131;-60
2023/07/08 14:20:58;;;;;;;1.58;1.17;;;;;;;;;;12982377;19;20411;-60
2023/07/08 14:25:18;;;;;;;4.50;1.30;;;;;;;;;;12982172;19;20018;-60
2023/07/08 14:29:35;;;;;;;1.58;1.30;;;;;;;;;;12981557;19;20018;-60
2023/07/08 14:34:04;;;;;;;3.20;1.67;;;;;;;;;;12981763;19;20015;-60
2023/07/08 14:38:21;;;;;;;;;;;;;;;;;;12981651;19;20374;-61
2023/07/08 14:42:39;;;;;;;3.70;1.48;;;;;;;;;;12978995;19;20282;-60
2023/07/08 14:46:58;;;;;;;2.90;1.60;;;;;;;;;;12979334;19;20010;-60
2023/07/08 14:51:16;;;;;;;5.18;1.63;;;;;;;;;;12979645;19;20018;-60
2023/07/08 14:55:35;;;;;;;2.70;1.40;;;;;;;;;;12979598;19;20685;-60
2023/07/08 14:59:53;;;;;;;3.45;1.60;;;;;;;;;;12982368;19;20045;-61
2023/07/08 15:04:14;;;;;;;2.95;1.38;;;;;;;;;;12989579;19;20343;-60
2023/07/08 15:08:34;;;;;;;5.45;1.50;;;;;;;;;;12992027;19;20475;-60
2023/07/08 15:12:52;;;;;;;1.88;1.27;;;;;;;;;;12991657;19;20321;-60
2023/07/08 15:17:18;;;;;;;2.33;1.35;;;;;;;;;;12988401;19;20476;-61
2023/07/08 15:21:36;;;;;;;1.60;1.17;;;;;;;;;;12989553;19;20393;-61
2023/07/08 15:25:54;;;;;;;2.15;1.10;;;;;;;;;;12991116;19;20226;-60
2023/07/08 15:30:22;;;;;;;2.30;1.20;;;;;;;;;;12988898;19;20488;-60
2023/07/08 15:34:40;;;;;;;1.45;1.10;;;;;;;;;;12988893;19;20501;-61
2023/07/08 15:38:57;;;;;;;1.88;1.05;;;;;;;;;;12990152;19;20010;-61
2023/07/08 15:43:21;;;;;;;2.47;1.00;;;;;;;;;;12989295;19;20046;-60
2023/07/08 15:47:43;;;;;;;4.25;1.23;;;;;;;;;;12986948;19;20024;-60
2023/07/08 15:52:03;;;;;;;2.58;1.13;;;;;;;;;;12989453;19;20444;-60
2023/07/08 15:56:21;;;;;;;4.82;1.40;;;;;;;;;;12989300;19;20025;-61
2023/07/08 16:00:40;;;;;;;3.03;1.40;;;;;;;;;;12989535;19;20021;-60
2023/07/08 16:04:58;;;;;;;1.77;1.25;;;;;;;;;;12990669;19;20015;-60
2023/07/08 16:09:16;;;;;;;1.80;1.13;;;;;;;;;;12990450;19;20040;-60
2023/07/08 16:13:36;;;;;;;2.47;1.48;;;;;;;;;;12986494;19;20561;-60
2023/07/08 16:17:55;;;;;;;1.27;1.17;;;;;;;;;;12990046;19;20007;-61
2023/07/08 16:22:12;;;;;;;1.33;1.08;;;;;;;;;;12986612;19;20038;-61
2023/07/08 16:26:31;;;;;;;7.30;1.40;;;;;;;;;;12989353;19;20003;-61
2023/07/08 16:30:49;;;;;;;1.90;1.20;;;;;;;;;;12988609;19;20010;-61
2023/07/08 16:35:12;;;;;;;2.70;1.30;;;;;;;;;;12987151;19;20022;-62
2023/07/08 16:39:30;;;;;;;3.92;1.33;;;;;;;;;;12988247;19;20018;-61
2023/07/08 16:43:52;;;;;;;2.03;1.40;;;;;;;;;;12987827;19;20007;-60
2023/07/08 16:48:10;;;;;;;1.63;1.35;;;;;;;;;;12985963;19;20019;-61
2023/07/08 16:52:28;;;;;;;3.58;1.55;;;;;;;;;;12987718;19;20007;-61
2023/07/08 16:56:46;;;;;;;2.85;1.45;;;;;;;;;;12987188;19;20034;-61
2023/07/08 17:01:04;;;;;;;2.63;1.23;;;;;;;;;;12986550;19;20021;-61
2023/07/08 17:05:34;;;;;;;2.95;1.50;;;;;;;;;;12985929;19;20026;-61
2023/07/08 17:10:00;;;;;;;3.97;1.10;;;;;;;;;;12986832;19;20032;-60
2023/07/08 17:14:17;;;;;;;2.70;1.83;;;;;;;;;;12985192;19;20019;-60
2023/07/08 17:18:35;;;;;;;2.97;1.30;;;;;;;;;;12986123;19;20014;-60
2023/07/08 17:22:53;;;;;;;2.60;1.30;;;;;;;;;;12985225;19;20533;-60
2023/07/08 17:27:11;;;;;;;14.85;2.78;;;;;;;;;;12984628;19;20015;-61
2023/07/08 17:31:29;;;;;;;2.00;1.10;;;;;;;;;;12984674;19;20150;-61
2023/07/08 17:36:10;;;;;;;6.10;1.42;;;;;;;;;;12982705;19;20492;-61
2023/07/08 17:40:28;;;;;;;2.78;1.30;;;;;;;;;;12983808;19;20039;-61
2023/07/08 17:44:46;;;;;;;2.60;1.35;;;;;;;;;;12985553;19;20497;-60
2023/07/08 17:49:05;;;;;;;;;;;;;;;;;;12983550;19;20010;-60
2023/07/08 17:53:23;;;;;;;6.47;2.80;;;;;;;;;;12983378;19;19914;-60
2023/07/08 17:57:41;;;;;;;;;;;;;;;;;;12984928;19;20465;-60
2023/07/08 18:01:59;;;;;;;4.20;2.40;;;;;;;;;;12983532;19;19933;-60
2023/07/08 18:06:19;;;;;;;4.72;2.85;;;;;;;;;;12984379;19;20015;-60
2023/07/08 18:10:37;;;;;;;11.07;5.22;;;;;;;;;;12983852;19;20010;-60
2023/07/08 18:14:54;;;;;;;14.27;6.78;;;;;;;;;;12982204;19;20481;-60
2023/07/08 18:19:12;;;;;;;24.23;9.50;;;;;;;;;;12982237;19;20456;-60
2023/07/08 18:23:34;;;;;;;32.92;14.02;;;;;;;;;;12982249;19;20010;-60
2023/07/08 18:27:52;;;;;;;47.45;19.00;;;;;;;;;;12980392;19;20015;-60
2023/07/08 18:32:12;;;;;;;71.53;26.60;;;;;;;;;;12981030;19;20037;-60
2023/07/08 18:36:31;;;;;;;68.13;29.65;;;;;;;;;;12978892;19;20025;-60
2023/07/08 18:40:49;;;;;;;74.60;29.65;;;;;;;;;;12982800;19;20381;-61
2023/07/08 18:45:19;;;;;;;77.22;30.00;;;;;;;;;;12979897;19;20380;-61
2023/07/08 18:49:37;;;;;;;71.65;29.05;;;;;;;;;;12979045;19;20015;-61
2023/07/08 18:53:54;;;;;;;51.85;21.20;;;;;;;;;;12980934;19;20011;-61
2023/07/08 18:58:21;;;;;;;38.63;17.15;;;;;;;;;;12980266;19;20350;-60
2023/07/08 19:02:50;;;;;;;25.65;12.07;;;;;;;;;;12980557;19;20041;-61
2023/07/08 19:07:11;;;;;;;27.38;10.65;;;;;;;;;;12977973;19;20513;-60
2023/07/08 19:11:29;;;;;;;18.15;7.93;;;;;;;;;;12980066;19;20692;-60
2023/07/08 19:15:47;;;;;;;11.45;5.72;;;;;;;;;;12976379;19;20538;-60
2023/07/08 19:20:06;;;;;;;9.88;5.20;;;;;;;;;;12978786;19;20015;-60
2023/07/08 19:24:25;;;;;;;10.85;5.70;;;;;;;;;;12978755;19;20010;-60
2023/07/08 19:28:55;;;;;;;9.10;5.57;;;;;;;;;;12979195;19;20038;-60
2023/07/08 19:33:16;;;;;;;8.90;4.82;;;;;;;;;;12978600;19;20019;-60
2023/07/08 19:37:33;;;;;;;17.27;9.40;;;;;;;;;;12979345;19;20011;-60
2023/07/08 19:41:51;;;;;;;31.23;15.00;;;;;;;;;;12978781;19;20011;-60
2023/07/08 19:46:16;;;;;;;13.90;8.15;;;;;;;;;;12980332;19;20019;-60
2023/07/08 19:50:34;;;;;;;7.40;4.78;;;;;;;;;;12990738;19;20122;-59
2023/07/08 19:54:52;;;;;;;5.53;3.22;;;;;;;;;;12989875;19;20010;-60
2023/07/08 19:59:14;;;;;;;5.60;4.00;;;;;;;;;;12989624;19;20014;-60
2023/07/08 20:03:34;;;;;;;7.35;4.60;;;;;;;;;;12989657;19;20030;-60
2023/07/08 20:07:56;;;;;;;9.63;6.15;;;;;;;;;;12989721;19;20018;-59
2023/07/08 20:12:14;;;;;;;8.65;5.63;;;;;;;;;;12987875;19;20021;-60
2023/07/08 20:16:32;;;;;;;7.90;5.50;;;;;;;;;;12986930;19;20134;-60
2023/07/08 20:20:50;;;;;;;6.65;4.63;;;;;;;;;;12989320;19;20011;-60
2023/07/08 20:25:13;;;;;;;11.65;5.25;;;;;;;;;;12989067;19;20025;-60
2023/07/08 20:29:31;;;;;;;6.78;4.35;;;;;;;;;;12989258;19;20010;-60
2023/07/08 20:33:49;;;;;;;13.40;5.28;;;;;;;;;;12987800;19;20485;-60
2023/07/08 20:38:13;;;;;;;13.45;4.10;;;;;;;;;;12987502;19;20014;-61
2023/07/08 20:42:32;;;;;;;5.32;4.00;;;;;;;;;;12988154;19;20018;-60
2023/07/08 20:46:50;;;;;;;13.15;4.63;;;;;;;;;;12986768;19;20014;-60
2023/07/08 20:51:08;;;;;;;12.65;4.10;;;;;;;;;;12986613;19;20014;-60
2023/07/08 20:55:27;;;;;;;6.43;3.83;;;;;;;;;;12987221;19;20010;-60
2023/07/08 20:59:45;;;;;;;;;;;;;;;;;;12986283;19;20013;-60
2023/07/08 21:04:03;;;;;;;7.57;4.22;;;;;;;;;;12986346;19;19918;-61
2023/07/08 21:08:38;;;;;;;6.25;4.15;;;;;;;;;;12987026;19;20031;-59
2023/07/08 21:12:56;;;;;;;6.30;3.33;;;;;;;;;;12985826;19;20011;-60
2023/07/08 21:17:18;;;;;;;6.22;3.95;;;;;;;;;;12985066;19;20018;-60
2023/07/08 21:21:36;;;;;;;5.90;4.07;;;;;;;;;;12984294;19;20033;-60
2023/07/08 21:25:54;;;;;;;6.82;3.97;;;;;;;;;;12985832;19;20461;-60
2023/07/08 21:30:15;;;;;;;;;;;;;;;;;;12986084;19;20018;-59
2023/07/08 21:34:33;;;;;;;7.50;3.90;;;;;;;;;;12984936;19;19918;-60
2023/07/08 21:38:53;;;;;;;8.05;3.40;;;;;;;;;;12984736;19;20021;-60
2023/07/08 21:43:15;;;;;;;9.98;4.18;;;;;;;;;;12983934;19;20362;-60
2023/07/08 21:47:33;;;;;;;10.70;4.30;;;;;;;;;;12983467;19;20030;-60
2023/07/08 21:51:51;;;;;;;8.85;4.18;;;;;;;;;;12983819;19;20015;-60
2023/07/08 21:56:09;;;;;;;7.18;3.88;;;;;;;;;;12981418;19;20022;-60
2023/07/08 22:00:27;;;;;;;7.22;3.42;;;;;;;;;;12983274;19;20022;-60
2023/07/08 22:04:44;;;;;;;;;;;;;;;;;;12984204;19;20015;-60
2023/07/08 22:09:02;;;;;;;;;;;;;;;;;;12981896;19;19911;-61
2023/07/08 22:13:23;;;;;;;7.90;4.13;;;;;;;;;;12983630;19;19911;-60
2023/07/08 22:17:41;;;;;;;8.13;4.13;;;;;;;;;;12983263;19;20045;-60
2023/07/08 22:21:59;;;;;;;6.93;3.63;;;;;;;;;;12981725;19;20037;-60
2023/07/08 22:26:18;;;;;;;4.70;3.53;;;;;;;;;;12982123;19;20010;-60
2023/07/08 22:30:36;;;;;;;;;;;;;;;;;;12983525;19;20749;-60
2023/07/08 22:34:53;;;;;;;6.07;3.58;;;;;;;;;;12981989;19;19915;-60
2023/07/08 22:39:11;;;;;;;7.30;3.60;;;;;;;;;;12981418;19;20011;-60
2023/07/08 22:43:30;;;;;;;6.70;3.50;;;;;;;;;;12982454;19;20015;-60
2023/07/08 22:47:49;;;;;;;8.35;3.20;;;;;;;;;;12980343;19;20010;-60
2023/07/08 22:52:22;;;;;;;6.05;2.92;;;;;;;;;;12980970;19;20469;-60
2023/07/08 22:56:41;;;;;;;5.35;3.10;;;;;;;;;;12980091;19;20014;-60
2023/07/08 23:00:59;;;;;;;5.88;3.30;;;;;;;;;;12981163;19;20367;-60
2023/07/08 23:05:28;;;;;;;6.25;3.42;;;;;;;;;;12980321;19;20029;-60
2023/07/08 23:09:46;;;;;;;7.22;3.20;;;;;;;;;;12979384;19;20498;-60
2023/07/08 23:14:04;;;;;;;5.43;2.88;;;;;;;;;;12979049;19;20060;-60
2023/07/08 23:18:22;;;;;;;9.23;3.75;;;;;;;;;;12979947;19;20022;-60
2023/07/08 23:22:39;;;;;;;12.75;3.10;;;;;;;;;;12988163;19;20017;-60
2023/07/08 23:26:57;;;;;;;4.10;2.33;;;;;;;;;;12992347;19;20018;-60
2023/07/08 23:31:16;;;;;;;4.78;3.00;;;;;;;;;;12992192;19;20118;-60
2023/07/08 23:35:35;;;;;;;3.85;2.70;;;;;;;;;;12991657;19;20018;-60
2023/07/08 23:39:52;;;;;;;4.80;2.60;;;;;;;;;;12992017;19;20576;-60
2023/07/08 23:44:12;;;;;;;5.65;2.70;;;;;;;;;;12990390;19;20029;-61
2023/07/08 23:48:30;;;;;;;5.00;2.78;;;;;;;;;;12991099;19;20038;-60
2023/07/08 23:52:49;;;;;;;8.30;2.80;;;;;;;;;;12991798;19;20015;-60
2023/07/08 23:57:18;;;;;;;4.82;2.63;;;;;;;;;;12990790;19;20607;-61
